Time;durP1;ratioP1;P1;durP2;ratioP2;P2;SDS_P1;SDS_P2;PMS_P1;PMS_P2;Temp;Humidity;BMP_temperature;BMP_pressure;BME280_temperature;BME280_humidity;BME280_pressure;Samples;Min_cycle;Max_cycle;Signal;HPM_P1;HPM_P2
2023/12/16 00:00:06;;;;;;;9.15;5.72;;;7.00;99.90;;;;;;5022748;27;90058;-28
2023/12/16 00:02:32;;;;;;;8.93;4.13;;;7.00;99.90;;;;;;5018212;27;91291;-30
2023/12/16 00:04:57;;;;;;;7.50;4.32;;;7.00;99.90;;;;;;5018558;28;90097;-32
2023/12/16 00:07:23;;;;;;;17.42;4.80;;;7.00;99.90;;;;;;5019724;28;90884;-32
2023/12/16 00:09:49;;;;;;;9.02;4.68;;;7.00;99.90;;;;;;5018485;27;90020;-30
2023/12/16 00:12:14;;;;;;;14.23;5.07;;;7.00;99.90;;;;;;5017898;27;89486;-31
2023/12/16 00:14:40;;;;;;;5.18;3.58;;;7.10;99.90;;;;;;5018931;27;89345;-31
2023/12/16 00:17:06;;;;;;;8.18;4.88;;;7.00;99.90;;;;;;5018869;27;89251;-31
2023/12/16 00:19:31;;;;;;;7.00;3.65;;;7.10;99.90;;;;;;5019281;27;89751;-29
2023/12/16 00:21:57;;;;;;;5.72;3.67;;;7.10;99.90;;;;;;5018492;27;89294;-30
2023/12/16 00:24:22;;;;;;;7.25;3.90;;;7.10;99.90;;;;;;5019681;27;88362;-30
2023/12/16 00:26:48;;;;;;;6.45;4.20;;;7.10;99.90;;;;;;5018293;28;90241;-32
2023/12/16 00:29:13;;;;;;;9.20;3.88;;;7.10;99.90;;;;;;5031667;27;89578;-32
2023/12/16 00:31:39;;;;;;;5.57;3.22;;;7.10;99.90;;;;;;5018770;28;89615;-29
2023/12/16 00:34:05;;;;;;;7.82;4.03;;;7.10;99.90;;;;;;5018357;28;89407;-29
2023/12/16 00:36:31;;;;;;;7.20;4.35;;;7.10;99.90;;;;;;5019300;27;90766;-29
2023/12/16 00:38:58;;;;;;;16.02;5.13;;;7.10;99.90;;;;;;5018151;27;91294;-31
2023/12/16 00:41:23;;;;;;;10.35;5.32;;;7.10;99.90;;;;;;5018942;27;90443;-28
2023/12/16 00:43:49;;;;;;;12.13;4.03;;;7.10;99.90;;;;;;5018794;27;90040;-32
2023/12/16 00:46:15;;;;;;;10.02;5.03;;;7.10;99.90;;;;;;5018357;27;90036;-32
2023/12/16 00:48:40;;;;;;;9.82;4.82;;;7.10;99.90;;;;;;5032055;27;89581;-27
2023/12/16 00:51:06;;;;;;;6.82;3.05;;;7.20;99.90;;;;;;5016602;28;90064;-30
2023/12/16 00:53:32;;;;;;;9.00;4.30;;;7.20;99.90;;;;;;5019071;27;88631;-32
2023/12/16 00:55:57;;;;;;;9.48;3.22;;;7.20;99.90;;;;;;5018635;27;89763;-31
2023/12/16 00:58:23;;;;;;;14.10;4.15;;;7.20;99.90;;;;;;5018779;28;89444;-32
2023/12/16 01:00:49;;;;;;;9.73;4.25;;;7.20;99.90;;;;;;5018485;27;89851;-32
2023/12/16 01:03:15;;;;;;;7.05;4.13;;;7.20;99.90;;;;;;5017947;27;91119;-31
2023/12/16 01:05:40;;;;;;;6.85;3.53;;;7.10;99.90;;;;;;5018313;28;89793;-29
2023/12/16 01:08:06;;;;;;;4.85;3.63;;;7.10;99.90;;;;;;5018021;27;89270;-30
2023/12/16 01:10:32;;;;;;;7.50;3.28;;;7.10;99.90;;;;;;5018906;28;89263;-28
2023/12/16 01:12:57;;;;;;;7.40;4.88;;;7.10;99.90;;;;;;5018143;28;89595;-30
2023/12/16 01:15:23;;;;;;;12.27;3.53;;;7.10;99.90;;;;;;5021504;27;89209;-29
2023/12/16 01:17:48;;;;;;;14.98;4.03;;;7.00;99.90;;;;;;5022487;27;89669;-31
2023/12/16 01:20:15;;;;;;;13.18;4.38;;;7.10;99.90;;;;;;5021225;28;89380;-29
2023/12/16 01:22:40;;;;;;;5.30;2.92;;;7.10;99.90;;;;;;5022700;27;88468;-30
2023/12/16 01:25:06;;;;;;;15.02;3.60;;;7.10;99.90;;;;;;5021099;28;90223;-29
2023/12/16 01:27:32;;;;;;;5.00;3.15;;;7.10;99.90;;;;;;5023715;27;90209;-31
2023/12/16 01:29:58;;;;;;;6.22;3.72;;;7.10;99.90;;;;;;5033555;27;90295;-31
2023/12/16 01:32:23;;;;;;;6.75;3.60;;;7.00;99.90;;;;;;5021272;28;88920;-29
2023/12/16 01:34:49;;;;;;;6.32;4.72;;;7.00;99.90;;;;;;5021138;28;90383;-30
2023/12/16 01:37:15;;;;;;;9.82;4.47;;;7.00;99.90;;;;;;5020712;27;90038;-30
2023/12/16 01:39:41;;;;;;;10.27;3.55;;;6.90;99.90;;;;;;5021836;27;90176;-32
2023/12/16 01:42:06;;;;;;;6.43;3.53;;;6.90;99.90;;;;;;5020984;28;88846;-29
2023/12/16 01:44:32;;;;;;;7.07;3.65;;;6.90;99.90;;;;;;5021220;28;90190;-31
2023/12/16 01:46:57;;;;;;;7.22;3.40;;;6.80;99.90;;;;;;5021089;28;89598;-29
2023/12/16 01:49:24;;;;;;;7.22;3.20;;;6.80;99.90;;;;;;5020699;28;89636;-28
2023/12/16 01:51:50;;;;;;;12.45;3.65;;;6.80;99.90;;;;;;5021195;28;89973;-29
2023/12/16 01:54:16;;;;;;;4.65;3.25;;;6.80;99.90;;;;;;5020903;28;91465;-32
2023/12/16 01:56:43;;;;;;;6.65;4.20;;;6.80;99.90;;;;;;5022591;27;89241;-30
2023/12/16 01:59:09;;;;;;;5.00;3.08;;;6.70;99.90;;;;;;5022606;27;89580;-32
2023/12/16 02:01:36;;;;;;;9.57;4.40;;;6.70;99.90;;;;;;5020717;28;88450;-30
2023/12/16 02:04:01;;;;;;;10.50;4.47;;;6.70;99.90;;;;;;5021673;27;90257;-29
2023/12/16 02:06:27;;;;;;;3.70;3.00;;;6.60;99.90;;;;;;5022916;27;89828;-30
2023/12/16 02:08:53;;;;;;;4.03;3.63;;;6.70;99.90;;;;;;5022643;27;90649;-33
2023/12/16 02:11:18;;;;;;;6.18;3.75;;;6.60;99.90;;;;;;5023142;27;89178;-29
2023/12/16 02:13:44;;;;;;;6.38;3.58;;;6.60;99.90;;;;;;5020918;28;91285;-32
2023/12/16 02:16:12;;;;;;;8.13;5.47;;;6.60;99.90;;;;;;5019802;27;89732;-30
2023/12/16 02:18:38;;;;;;;13.18;4.05;;;6.50;99.90;;;;;;5021604;27;90341;-30
2023/12/16 02:21:04;;;;;;;4.80;4.35;;;6.50;99.90;;;;;;5020814;28;88824;-31
2023/12/16 02:23:30;;;;;;;9.18;3.33;;;6.50;99.90;;;;;;5020275;27;90269;-29
2023/12/16 02:25:55;;;;;;;21.58;4.60;;;6.50;99.90;;;;;;5020673;27;90118;-32
2023/12/16 02:28:21;;;;;;;11.00;4.05;;;6.50;99.90;;;;;;5028685;27;89600;-29
2023/12/16 02:30:47;;;;;;;8.48;3.08;;;6.40;99.90;;;;;;5027083;27;88971;-29
2023/12/16 02:33:12;;;;;;;9.15;4.60;;;6.50;99.90;;;;;;5032068;27;89802;-30
2023/12/16 02:35:38;;;;;;;10.10;4.03;;;6.50;99.90;;;;;;5033704;27;90144;-30
2023/12/16 02:38:04;;;;;;;8.13;3.47;;;6.50;99.90;;;;;;5019714;27;90673;-30
2023/12/16 02:40:29;;;;;;;5.80;2.70;;;6.50;99.90;;;;;;5019708;28;90294;-31
2023/12/16 02:42:55;;;;;;;6.43;3.25;;;6.40;99.90;;;;;;5020184;28;90152;-31
2023/12/16 02:45:20;;;;;;;8.45;3.83;;;6.40;99.90;;;;;;5019718;27;90519;-31
2023/12/16 02:47:46;;;;;;;8.27;2.95;;;6.40;99.90;;;;;;5020976;27;89148;-28
2023/12/16 02:50:12;;;;;;;8.77;3.47;;;6.40;99.90;;;;;;5019513;27;87478;-32
2023/12/16 02:52:38;;;;;;;4.57;2.90;;;6.30;99.90;;;;;;5020009;27;90074;-31
2023/12/16 02:55:03;;;;;;;8.13;4.35;;;6.30;99.90;;;;;;5020500;27;89868;-30
2023/12/16 02:57:29;;;;;;;7.25;2.83;;;6.30;99.90;;;;;;5019834;28;89096;-29
2023/12/16 02:59:54;;;;;;;3.80;3.20;;;6.30;99.90;;;;;;5020124;28;88829;-29
2023/12/16 03:02:20;;;;;;;10.80;3.22;;;6.30;99.90;;;;;;5019912;27;90331;-30
2023/12/16 03:04:46;;;;;;;7.43;3.30;;;6.30;99.90;;;;;;5019519;28;90226;-32
2023/12/16 03:07:12;;;;;;;7.72;4.38;;;6.20;99.90;;;;;;5019738;27;90176;-30
2023/12/16 03:09:37;;;;;;;4.80;3.47;;;6.20;99.90;;;;;;5019637;27;88992;-31
2023/12/16 03:12:04;;;;;;;5.88;4.72;;;6.20;99.90;;;;;;5020145;28;90268;-28
2023/12/16 03:14:29;;;;;;;5.15;3.05;;;6.20;99.90;;;;;;5019663;27;90105;-31
2023/12/16 03:16:55;;;;;;;7.82;3.40;;;6.20;99.90;;;;;;5020061;28;88947;-32
2023/12/16 03:19:21;;;;;;;6.18;4.47;;;6.10;99.90;;;;;;5019906;28;89609;-29
2023/12/16 03:21:46;;;;;;;7.63;4.68;;;6.10;99.90;;;;;;5020298;28;90212;-30
2023/12/16 03:24:12;;;;;;;7.80;3.78;;;6.10;99.90;;;;;;5020082;27;90078;-30
2023/12/16 03:26:38;;;;;;;5.00;3.13;;;6.10;99.90;;;;;;5020126;27;89596;-30
2023/12/16 03:29:03;;;;;;;7.10;2.70;;;6.10;99.90;;;;;;5033265;27;90526;-28
2023/12/16 03:31:29;;;;;;;5.38;3.65;;;6.10;99.90;;;;;;5031926;27;89567;-31
2023/12/16 03:33:54;;;;;;;11.43;4.40;;;6.10;99.90;;;;;;5019552;27;89397;-32
2023/12/16 03:36:20;;;;;;;8.10;4.05;;;6.10;99.90;;;;;;5018778;27;89761;-31
2023/12/16 03:38:46;;;;;;;5.05;2.75;;;6.10;99.90;;;;;;5019792;28;89812;-32
2023/12/16 03:41:12;;;;;;;7.88;4.45;;;6.00;99.90;;;;;;5019318;28;90545;-28
2023/12/16 03:43:37;;;;;;;8.70;4.05;;;6.00;99.90;;;;;;5019270;28;90082;-32
2023/12/16 03:46:03;;;;;;;5.80;3.58;;;6.00;99.90;;;;;;5026659;27;89391;-29
2023/12/16 03:48:29;;;;;;;9.63;4.40;;;6.00;99.90;;;;;;5025311;27;90580;-30
2023/12/16 03:50:55;;;;;;;5.13;2.70;;;6.00;99.90;;;;;;5026520;27;89522;-33
2023/12/16 03:53:21;;;;;;;5.00;4.43;;;6.00;99.90;;;;;;5024008;27;90653;-30
2023/12/16 03:55:46;;;;;;;5.50;3.47;;;5.90;99.90;;;;;;5030927;27;90316;-27
2023/12/16 03:58:12;;;;;;;8.65;4.10;;;6.00;99.90;;;;;;5019737;28;89625;-31
2023/12/16 04:00:37;;;;;;;8.70;3.55;;;5.90;99.90;;;;;;5026181;27;89987;-29
2023/12/16 04:03:03;;;;;;;7.78;3.75;;;5.90;99.90;;;;;;5025392;27;89398;-33
2023/12/16 04:05:29;;;;;;;11.65;3.35;;;5.90;99.90;;;;;;5038809;27;89394;-30
2023/12/16 04:07:54;;;;;;;12.43;3.80;;;5.80;99.90;;;;;;5024459;27;89167;-33
2023/12/16 04:10:20;;;;;;;10.95;2.97;;;5.80;99.90;;;;;;5019351;28;90909;-33
2023/12/16 04:12:45;;;;;;;9.90;3.50;;;5.80;99.90;;;;;;5018357;28;89333;-28
2023/12/16 04:15:14;;;;;;;4.97;2.95;;;5.80;99.90;;;;;;5026199;27;90303;-29
2023/12/16 04:17:39;;;;;;;10.93;3.97;;;5.80;99.90;;;;;;5037767;27;90594;-29
2023/12/16 04:20:06;;;;;;;7.20;3.50;;;5.80;99.90;;;;;;5038334;27;89676;-30
2023/12/16 04:22:31;;;;;;;13.52;4.93;;;5.80;99.90;;;;;;5037278;27;91087;-30
2023/12/16 04:25:00;;;;;;;8.48;3.72;;;5.80;99.90;;;;;;5031000;27;89763;-30
2023/12/16 04:27:26;;;;;;;10.15;3.60;;;5.70;99.90;;;;;;5019843;27;89611;-30
2023/12/16 04:29:52;;;;;;;9.00;3.75;;;5.70;99.90;;;;;;5031449;27;90315;-31
2023/12/16 04:32:18;;;;;;;8.75;4.35;;;5.70;99.90;;;;;;5018834;27;89742;-27
2023/12/16 04:34:44;;;;;;;9.73;3.85;;;5.70;99.90;;;;;;5019157;27;90047;-30
2023/12/16 04:37:10;;;;;;;10.20;3.90;;;5.70;99.90;;;;;;5019388;27;89268;-29
2023/12/16 04:39:36;;;;;;;8.30;4.88;;;5.70;99.90;;;;;;5019395;27;89891;-32
2023/12/16 04:42:02;;;;;;;5.63;3.47;;;5.70;99.90;;;;;;5017035;27;91092;-33
2023/12/16 04:44:28;;;;;;;10.35;3.85;;;5.70;99.90;;;;;;5018967;28;90451;-29
2023/12/16 04:46:53;;;;;;;13.32;4.03;;;5.70;99.90;;;;;;5018772;27;88791;-29
2023/12/16 04:49:19;;;;;;;8.18;3.67;;;5.70;99.90;;;;;;5033719;27;90183;-29
2023/12/16 04:51:45;;;;;;;4.22;3.53;;;5.70;99.90;;;;;;5021668;27;89826;-30
2023/12/16 04:54:11;;;;;;;9.35;3.25;;;5.70;99.90;;;;;;5021556;28;90170;-31
2023/12/16 04:56:36;;;;;;;7.07;3.85;;;5.60;99.90;;;;;;5035761;27;89599;-29
2023/12/16 04:59:02;;;;;;;17.30;4.53;;;5.70;99.90;;;;;;5022283;28;89899;-30
2023/12/16 05:01:28;;;;;;;6.63;3.53;;;5.60;99.90;;;;;;5022035;27;89886;-32
2023/12/16 05:03:54;;;;;;;12.13;4.07;;;5.60;99.90;;;;;;5021560;27;89669;-29
2023/12/16 05:06:21;;;;;;;5.57;3.33;;;5.60;99.90;;;;;;5021757;27;89454;-31
2023/12/16 05:08:46;;;;;;;3.78;3.28;;;5.60;99.90;;;;;;5022310;27;90064;-30
2023/12/16 05:11:12;;;;;;;10.95;5.05;;;5.60;99.90;;;;;;5021106;27;90015;-29
2023/12/16 05:13:38;;;;;;;8.98;4.85;;;5.60;99.90;;;;;;5029423;27;89466;-32
2023/12/16 05:16:04;;;;;;;8.70;4.38;;;5.60;99.90;;;;;;5040699;27;89145;-33
2023/12/16 05:18:29;;;;;;;6.35;3.60;;;5.60;99.90;;;;;;5034626;27;90425;-28
2023/12/16 05:20:55;;;;;;;5.78;4.03;;;5.60;99.90;;;;;;5021144;28;90042;-29
2023/12/16 05:23:20;;;;;;;7.35;3.47;;;5.60;99.90;;;;;;5015849;27;89364;-30
2023/12/16 05:25:46;;;;;;;10.40;4.80;;;5.60;99.90;;;;;;5021921;27;88127;-30
2023/12/16 05:28:12;;;;;;;12.73;4.18;;;5.60;99.90;;;;;;5028041;27;90023;-32
2023/12/16 05:30:37;;;;;;;7.78;3.78;;;5.60;99.90;;;;;;5027592;27;90679;-30
2023/12/16 05:33:03;;;;;;;10.93;3.25;;;5.60;99.90;;;;;;5028696;27;91733;-30
2023/12/16 05:35:28;;;;;;;7.90;4.75;;;5.60;99.90;;;;;;5041346;27;88190;-31
2023/12/16 05:37:54;;;;;;;20.65;4.50;;;5.60;99.90;;;;;;5033953;27;90759;-31
2023/12/16 05:40:19;;;;;;;15.43;3.85;;;5.60;99.90;;;;;;5022581;27;89719;-31
2023/12/16 05:42:45;;;;;;;13.77;5.63;;;5.60;99.90;;;;;;5021919;28;89968;-30
2023/12/16 05:45:11;;;;;;;7.68;4.15;;;5.60;99.90;;;;;;5020794;27;88311;-31
2023/12/16 05:47:37;;;;;;;9.68;3.78;;;5.60;99.90;;;;;;5041213;27;91593;-30
2023/12/16 05:50:03;;;;;;;10.88;4.80;;;5.60;99.90;;;;;;5026607;27;89665;-29
2023/12/16 05:52:30;;;;;;;7.28;3.65;;;5.60;99.90;;;;;;5027662;27;89906;-31
2023/12/16 05:54:55;;;;;;;9.48;4.78;;;5.60;99.90;;;;;;5039740;27;90018;-29
2023/12/16 05:57:21;;;;;;;5.30;2.80;;;5.60;99.90;;;;;;5020605;28;90230;-30
2023/12/16 05:59:46;;;;;;;14.00;6.82;;;5.60;99.90;;;;;;5033319;27;89946;-32
2023/12/16 06:02:12;;;;;;;7.60;2.97;;;5.50;99.90;;;;;;5038897;27;89276;-31
2023/12/16 06:04:38;;;;;;;9.23;3.55;;;5.50;99.90;;;;;;5026742;27;89974;-32
2023/12/16 06:07:04;;;;;;;9.40;4.05;;;5.50;99.90;;;;;;5040120;27;90162;-31
2023/12/16 06:09:29;;;;;;;10.35;5.47;;;5.50;99.90;;;;;;5024955;27;90218;-32
2023/12/16 06:11:55;;;;;;;14.77;4.13;;;5.50;99.90;;;;;;5033919;27;89757;-32
2023/12/16 06:14:21;;;;;;;8.40;4.97;;;5.50;99.90;;;;;;5033261;27;90049;-31
2023/12/16 06:16:47;;;;;;;15.13;5.43;;;5.50;99.90;;;;;;5032571;27;89982;-34
2023/12/16 06:19:12;;;;;;;10.27;5.10;;;5.50;99.90;;;;;;5032407;27;91049;-32
2023/12/16 06:21:38;;;;;;;12.82;4.13;;;5.50;99.90;;;;;;5032030;27;90545;-30
2023/12/16 06:24:05;;;;;;;7.60;5.00;;;5.50;99.90;;;;;;5020974;28;88495;-28
2023/12/16 06:26:31;;;;;;;8.15;4.00;;;5.50;99.90;;;;;;5015218;27;90853;-29
2023/12/16 06:28:57;;;;;;;7.40;5.55;;;5.40;99.90;;;;;;5039561;27;89761;-31
2023/12/16 06:31:22;;;;;;;15.90;5.47;;;5.50;99.90;;;;;;5020655;28;89735;-28
2023/12/16 06:33:48;;;;;;;11.20;5.07;;;5.50;99.90;;;;;;5020724;28;88784;-31
2023/12/16 06:36:13;;;;;;;10.77;5.05;;;5.50;99.90;;;;;;5021184;27;90458;-31
2023/12/16 06:38:39;;;;;;;11.52;4.32;;;5.50;99.90;;;;;;5019815;27;89993;-33
2023/12/16 06:41:05;;;;;;;11.65;4.85;;;5.50;99.90;;;;;;5020579;27;89533;-29
2023/12/16 06:43:31;;;;;;;8.90;5.28;;;5.40;99.90;;;;;;5020324;27;89577;-31
2023/12/16 06:45:56;;;;;;;10.93;5.82;;;5.40;99.90;;;;;;5020950;27;89631;-30
2023/12/16 06:48:22;;;;;;;8.85;4.45;;;5.40;99.90;;;;;;5020837;27;89857;-32
2023/12/16 06:50:49;;;;;;;10.27;4.15;;;5.40;99.90;;;;;;5019018;27;88181;-31
2023/12/16 06:53:15;;;;;;;10.60;4.97;;;5.40;99.90;;;;;;5021501;27;89070;-29
2023/12/16 06:55:41;;;;;;;13.85;5.50;;;5.40;99.90;;;;;;5020684;27;90349;-31
2023/12/16 06:58:06;;;;;;;8.45;4.75;;;5.40;99.90;;;;;;5020453;27;89066;-30
2023/12/16 07:00:32;;;;;;;8.80;3.95;;;5.40;99.90;;;;;;5021465;27;89620;-32
2023/12/16 07:02:57;;;;;;;8.90;4.65;;;5.40;99.90;;;;;;5020421;27;89137;-31
2023/12/16 07:05:23;;;;;;;13.50;6.07;;;5.40;99.90;;;;;;5020581;27;90179;-33
2023/12/16 07:07:49;;;;;;;8.25;3.95;;;5.40;99.90;;;;;;5019487;28;89924;-28
2023/12/16 07:10:15;;;;;;;14.05;6.97;;;5.50;99.90;;;;;;5019646;28;90552;-32
2023/12/16 07:12:40;;;;;;;10.90;5.10;;;5.50;99.90;;;;;;5019765;28;88958;-31
2023/12/16 07:15:07;;;;;;;15.20;4.82;;;5.50;99.90;;;;;;5013642;27;88375;-30
2023/12/16 07:17:33;;;;;;;7.88;5.10;;;5.60;99.90;;;;;;5020043;28;90077;-30
2023/12/16 07:19:59;;;;;;;10.50;4.68;;;5.50;99.90;;;;;;5020282;28;89015;-28
2023/12/16 07:22:24;;;;;;;11.60;7.22;;;5.60;99.90;;;;;;5021026;27;88011;-30
2023/12/16 07:24:50;;;;;;;7.90;5.07;;;5.60;99.90;;;;;;5020168;28;90604;-29
2023/12/16 07:27:16;;;;;;;14.77;6.68;;;5.60;99.90;;;;;;5020930;27;88835;-31
2023/12/16 07:29:42;;;;;;;16.50;5.70;;;5.70;99.90;;;;;;5033041;27;89583;-28
2023/12/16 07:32:08;;;;;;;8.40;5.13;;;5.70;99.90;;;;;;5018848;27;90170;-32
2023/12/16 07:34:33;;;;;;;15.30;5.22;;;5.70;99.90;;;;;;5018840;27;90580;-30
2023/12/16 07:36:59;;;;;;;11.88;6.35;;;5.70;99.90;;;;;;5051956;22;92037;-31
2023/12/16 07:39:25;;;;;;;8.55;4.68;;;5.80;99.90;;;;;;5018081;28;89800;-29
2023/12/16 07:41:50;;;;;;;13.27;5.78;;;5.80;99.90;;;;;;5019857;27;88119;-30
2023/12/16 07:44:16;;;;;;;12.98;6.72;;;5.80;99.90;;;;;;5018957;27;90115;-31
2023/12/16 07:46:42;;;;;;;11.70;5.82;;;5.80;99.90;;;;;;5019506;28;89714;-29
2023/12/16 07:49:08;;;;;;;15.82;6.65;;;5.80;99.90;;;;;;5019186;28;89143;-31
2023/12/16 07:51:35;;;;;;;6.85;5.30;;;5.90;99.90;;;;;;5018676;27;90222;-31
2023/12/16 07:54:02;;;;;;;;;;;5.90;99.90;;;;;;5013129;28;89911;-28
2023/12/16 07:56:28;;;;;;;12.48;5.80;;;5.90;99.90;;;;;;5014441;28;92261;-32
2023/12/16 07:58:54;;;;;;;6.90;4.55;;;5.90;99.90;;;;;;5005650;28;90118;-30
2023/12/16 08:01:20;;;;;;;15.02;6.13;;;5.80;99.90;;;;;;5017339;28;88859;-32
2023/12/16 08:03:47;;;;;;;16.45;5.65;;;5.90;99.90;;;;;;5017021;27;90581;-31
2023/12/16 08:06:16;;;;;;;18.48;8.30;;;5.90;99.90;;;;;;5015203;27;89918;-29
2023/12/16 08:08:43;;;;;;;16.63;5.95;;;5.90;99.90;;;;;;5016544;27;89393;-30
2023/12/16 08:11:09;;;;;;;13.18;7.40;;;5.90;99.90;;;;;;5016815;27;88928;-29
2023/12/16 08:13:35;;;;;;;12.43;5.90;;;6.00;99.90;;;;;;5016182;27;90778;-29
2023/12/16 08:16:01;;;;;;;8.30;4.05;;;6.00;99.90;;;;;;5015181;27;90018;-30
2023/12/16 08:18:27;;;;;;;12.95;8.32;;;6.00;99.90;;;;;;5016533;27;89775;-30
2023/12/16 08:20:53;;;;;;;16.75;7.30;;;6.00;99.90;;;;;;5015123;27;89939;-34
2023/12/16 08:23:19;;;;;;;17.45;8.77;;;6.00;99.90;;;;;;5015755;27;90304;-29
2023/12/16 08:25:46;;;;;;;9.15;6.38;;;6.00;99.90;;;;;;5017112;27;89972;-30
2023/12/16 08:28:11;;;;;;;12.38;6.85;;;6.10;99.90;;;;;;5015242;27;89575;-33
2023/12/16 08:30:37;;;;;;;6.53;5.32;;;6.10;99.90;;;;;;5016753;27;88561;-30
2023/12/16 08:33:03;;;;;;;19.23;6.25;;;6.10;99.90;;;;;;5016184;28;89845;-30
2023/12/16 08:35:29;;;;;;;13.57;6.07;;;6.20;99.90;;;;;;5007106;27;89245;-33
2023/12/16 08:37:56;;;;;;;14.88;6.97;;;6.20;99.90;;;;;;5012014;28;90125;-31
2023/12/16 08:40:22;;;;;;;17.65;8.32;;;6.20;99.90;;;;;;5016353;27;89217;-30
2023/12/16 08:42:47;;;;;;;12.43;6.15;;;6.20;99.90;;;;;;5016125;27;90154;-32
2023/12/16 08:45:13;;;;;;;15.48;7.93;;;6.20;99.90;;;;;;5016187;28;90735;-31
2023/12/16 08:47:40;;;;;;;19.30;7.63;;;6.30;99.90;;;;;;5016356;28;90356;-28
2023/12/16 08:50:07;;;;;;;17.27;8.50;;;6.30;99.90;;;;;;5017050;27;89510;-31
2023/12/16 08:52:33;;;;;;;18.20;6.93;;;6.40;99.90;;;;;;5016054;27;89419;-28
2023/12/16 08:54:58;;;;;;;12.27;5.85;;;6.40;99.90;;;;;;5016051;28;89872;-29
2023/12/16 08:57:25;;;;;;;9.10;6.25;;;6.40;99.90;;;;;;5015723;28;89629;-30
2023/12/16 08:59:50;;;;;;;13.60;6.13;;;6.40;99.90;;;;;;5016670;27;89064;-29
2023/12/16 09:02:16;;;;;;;10.57;6.97;;;6.40;99.90;;;;;;5016772;28;89123;-34
2023/12/16 09:04:41;;;;;;;12.85;7.43;;;6.50;99.90;;;;;;5016217;27;90066;-31
2023/12/16 09:07:07;;;;;;;15.40;8.55;;;6.50;99.90;;;;;;5015447;28;89554;-31
2023/12/16 09:09:33;;;;;;;9.63;6.18;;;6.50;99.90;;;;;;5016753;27;90321;-31
2023/12/16 09:11:59;;;;;;;9.90;6.22;;;6.60;99.90;;;;;;5013981;28;90061;-32
2023/12/16 09:14:24;;;;;;;16.10;7.25;;;6.60;99.90;;;;;;5015439;28;89893;-31
2023/12/16 09:16:50;;;;;;;11.38;7.53;;;6.60;99.90;;;;;;5009945;27;91661;-31
2023/12/16 09:19:16;;;;;;;11.57;7.00;;;6.70;99.90;;;;;;5013620;28;89292;-29
2023/12/16 09:21:42;;;;;;;18.20;7.47;;;6.70;99.90;;;;;;5006304;27;91013;-31
2023/12/16 09:24:08;;;;;;;22.15;9.15;;;6.70;99.90;;;;;;5014802;28;89729;-28
2023/12/16 09:26:33;;;;;;;8.27;5.57;;;6.80;99.90;;;;;;5015275;27;89514;-33
2023/12/16 09:29:00;;;;;;;21.25;7.15;;;6.80;99.90;;;;;;5014776;28;89352;-31
2023/12/16 09:31:26;;;;;;;10.60;7.85;;;6.80;99.90;;;;;;5015208;28;89258;-32
2023/12/16 09:33:51;;;;;;;15.80;7.45;;;6.90;99.90;;;;;;5014017;27;90633;-28
2023/12/16 09:36:17;;;;;;;14.45;6.68;;;6.90;99.90;;;;;;5017533;27;89392;-29
2023/12/16 09:38:43;;;;;;;14.52;7.30;;;6.90;99.90;;;;;;5018284;28;88750;-31
2023/12/16 09:41:22;;;;;;;14.50;7.13;;;6.90;99.90;;;;;;5017206;28;90458;-33
2023/12/16 09:44:03;;;;;;;13.63;7.07;;;6.90;99.90;;;;;;5018207;27;89753;-29
2023/12/16 09:46:30;;;;;;;15.75;8.25;;;6.90;99.90;;;;;;5018719;27;89213;-30
2023/12/16 09:48:56;;;;;;;15.80;6.95;;;7.00;99.90;;;;;;5018076;27;90142;-32
2023/12/16 09:51:23;;;;;;;20.50;8.80;;;6.90;99.90;;;;;;5018333;27;89586;-31
2023/12/16 09:53:50;;;;;;;12.15;7.78;;;7.00;99.90;;;;;;5018497;28;89893;-31
2023/12/16 09:56:16;;;;;;;12.07;7.63;;;7.00;99.90;;;;;;5017469;27;89522;-31
2023/12/16 09:58:44;;;;;;;15.57;7.35;;;7.00;99.90;;;;;;5017897;27;89009;-30
2023/12/16 10:01:10;;;;;;;22.20;8.93;;;7.00;99.90;;;;;;5018773;28;91038;-28
2023/12/16 10:03:40;;;;;;;13.73;7.38;;;7.00;99.90;;;;;;5017698;27;89352;-30
2023/12/16 10:06:07;;;;;;;23.30;8.23;;;7.00;99.90;;;;;;5018693;27;90840;-29
2023/12/16 10:08:34;;;;;;;20.65;9.65;;;7.00;99.90;;;;;;5018403;27;88437;-31
2023/12/16 10:11:02;;;;;;;22.42;9.68;;;7.00;99.90;;;;;;5017004;27;90315;-29
2023/12/16 10:13:29;;;;;;;19.60;7.63;;;6.90;99.90;;;;;;5006051;28;89657;-28
2023/12/16 10:15:55;;;;;;;17.52;8.57;;;6.90;99.90;;;;;;5017831;27;89462;-31
2023/12/16 10:18:21;;;;;;;30.50;9.73;;;6.90;99.90;;;;;;5017611;28;89482;-30
2023/12/16 10:20:47;;;;;;;15.35;8.23;;;6.90;99.90;;;;;;5018646;28;90075;-28
2023/12/16 10:23:13;;;;;;;15.18;8.38;;;7.00;99.90;;;;;;5005124;28;90231;-32
2023/12/16 10:25:42;;;;;;;28.35;8.32;;;6.90;99.90;;;;;;5017809;27;90492;-33
2023/12/16 10:28:09;;;;;;;14.23;8.27;;;6.90;99.90;;;;;;5005452;28;90472;-29
2023/12/16 10:30:34;;;;;;;27.98;10.25;;;7.00;99.90;;;;;;5017899;28;89980;-30
2023/12/16 10:33:03;;;;;;;25.98;12.25;;;7.00;99.90;;;;;;5012742;28;90240;-28
2023/12/16 10:35:33;;;;;;;17.08;8.85;;;7.00;99.90;;;;;;5016544;27;89042;-32
2023/12/16 10:37:58;;;;;;;22.85;8.57;;;7.00;99.90;;;;;;5016778;27;89253;-32
2023/12/16 10:40:24;;;;;;;25.23;8.80;;;7.00;99.90;;;;;;5017357;28;90162;-29
2023/12/16 10:42:50;;;;;;;23.75;9.73;;;7.00;99.90;;;;;;5017024;28;90179;-31
2023/12/16 10:45:15;;;;;;;13.52;8.38;;;7.00;99.90;;;;;;5010242;27;89787;-31
2023/12/16 10:47:42;;;;;;;28.38;12.68;;;7.00;99.90;;;;;;5016295;28;90236;-31
2023/12/16 10:50:09;;;;;;;25.10;8.98;;;7.10;99.90;;;;;;5016596;28;90903;-29
2023/12/16 10:52:39;;;;;;;18.50;9.27;;;7.10;99.90;;;;;;5017473;27;89396;-29
2023/12/16 10:55:09;;;;;;;20.15;11.23;;;7.10;99.90;;;;;;5017735;28;89381;-30
2023/12/16 10:57:49;;;;;;;21.33;10.15;;;7.10;99.90;;;;;;5017679;28;89548;-31
2023/12/16 11:00:27;;;;;;;17.38;10.15;;;7.10;99.90;;;;;;5016238;28;91371;-30
2023/12/16 11:02:59;;;;;;;18.73;9.43;;;7.20;99.90;;;;;;5016098;28;90207;-34
2023/12/16 11:05:34;;;;;;;28.23;13.98;;;7.20;99.90;;;;;;5017546;28;89518;-30
2023/12/16 11:08:04;;;;;;;24.45;9.07;;;7.20;99.90;;;;;;5017617;27;89807;-27
2023/12/16 11:10:30;;;;;;;23.70;10.32;;;7.20;99.90;;;;;;5016607;27;89948;-28
2023/12/16 11:12:59;;;;;;;19.30;10.50;;;7.20;99.90;;;;;;5016062;27;91917;-31
2023/12/16 11:15:25;;;;;;;16.98;10.25;;;7.20;99.90;;;;;;5016299;28;90372;-33
2023/12/16 11:17:57;;;;;;;24.48;11.38;;;7.20;99.90;;;;;;5016130;27;90123;-31
2023/12/16 11:20:35;;;;;;;24.55;11.90;;;7.20;99.90;;;;;;5003868;28;90280;-31
2023/12/16 11:23:00;;;;;;;19.47;11.20;;;7.20;99.90;;;;;;5016363;27;89745;-32
2023/12/16 11:25:26;;;;;;;19.92;12.63;;;7.20;99.90;;;;;;5016748;28;89413;-30
2023/12/16 11:27:52;;;;;;;20.35;10.73;;;7.20;99.90;;;;;;5016255;27;89506;-28
2023/12/16 11:30:21;;;;;;;24.60;10.68;;;7.20;99.90;;;;;;5016407;28;91670;-32
2023/12/16 11:32:54;;;;;;;19.23;11.90;;;7.20;99.90;;;;;;5015546;27;89857;-29
2023/12/16 11:35:44;;;;;;;18.85;10.65;;;7.30;99.90;;;;;;5016313;27;88911;-32
2023/12/16 11:38:38;;;;;;;25.00;10.90;;;7.20;99.90;;;;;;5015339;27;89982;-29
2023/12/16 11:41:04;;;;;;;23.45;10.15;;;7.30;99.90;;;;;;5015535;28;89913;-32
2023/12/16 11:43:47;;;;;;;12.68;8.57;;;7.30;99.90;;;;;;5016536;27;90142;-29
2023/12/16 11:46:35;;;;;;;25.83;10.88;;;7.30;99.90;;;;;;5000703;28;90447;-30
2023/12/16 11:49:02;;;;;;;22.20;10.47;;;7.40;99.90;;;;;;5016308;27;89692;-31
2023/12/16 11:51:33;;;;;;;22.17;11.25;;;7.40;99.90;;;;;;5016526;28;89028;-31
2023/12/16 11:53:59;;;;;;;19.83;12.00;;;7.40;99.90;;;;;;5015419;27;88360;-29
2023/12/16 11:56:26;;;;;;;26.90;11.05;;;7.40;99.90;;;;;;5016215;28;89700;-30
2023/12/16 11:58:57;;;;;;;17.92;10.50;;;7.50;99.90;;;;;;5014797;28;88895;-31
2023/12/16 12:01:24;;;;;;;30.42;13.27;;;7.50;99.90;;;;;;5014443;28;90141;-32
2023/12/16 12:03:50;;;;;;;23.60;12.00;;;7.50;99.90;;;;;;5003043;28;90582;-30
2023/12/16 12:06:16;;;;;;;22.00;9.68;;;7.60;99.90;;;;;;5015939;28;90633;-31
2023/12/16 12:08:44;;;;;;;17.83;9.85;;;7.50;99.90;;;;;;5016017;27;90051;-29
2023/12/16 12:11:11;;;;;;;;;;;7.60;99.90;;;;;;5014542;28;89344;-32
2023/12/16 12:13:36;;;;;;;22.08;10.43;;;7.60;99.90;;;;;;5018182;27;89574;-29
2023/12/16 12:16:03;;;;;;;19.83;10.55;;;7.60;99.90;;;;;;5014450;28;89153;-29
2023/12/16 12:18:28;;;;;;;18.80;10.10;;;7.60;99.90;;;;;;5010020;28;89180;-30
2023/12/16 12:20:54;;;;;;;26.98;11.48;;;7.70;99.90;;;;;;5015836;27;91586;-29
2023/12/16 12:23:20;;;;;;;15.73;10.05;;;7.70;99.90;;;;;;5014795;27;90072;-33
2023/12/16 12:25:56;;;;;;;17.77;10.25;;;7.70;99.90;;;;;;5016491;28;90081;-29
2023/12/16 12:28:22;;;;;;;12.30;9.90;;;7.70;99.90;;;;;;5014925;28;90312;-33
2023/12/16 12:30:48;;;;;;;17.27;10.02;;;7.70;99.90;;;;;;5015454;27;90335;-33
2023/12/16 12:33:13;;;;;;;16.48;10.50;;;7.70;99.90;;;;;;5015571;27;90021;-29
2023/12/16 12:35:39;;;;;;;15.88;10.32;;;7.70;99.90;;;;;;5015154;28;91384;-29
2023/12/16 12:38:05;;;;;;;22.67;11.60;;;7.80;99.90;;;;;;5014692;28;89274;-33
2023/12/16 12:40:31;;;;;;;16.23;9.88;;;7.80;99.90;;;;;;5014529;28;90079;-31
2023/12/16 12:42:58;;;;;;;13.98;9.48;;;7.80;99.90;;;;;;5015913;28;89796;-30
2023/12/16 12:45:25;;;;;;;17.05;11.13;;;7.80;99.90;;;;;;5016592;27;89812;-31